Time;durP1;ratioP1;P1;durP2;ratioP2;P2;SDS_P1;SDS_P2;PMS_P1;PMS_P2;Temp;Humidity;BMP_temperature;BMP_pressure;BME280_temperature;BME280_humidity;BME280_pressure;Samples;Min_cycle;Max_cycle;Signal;HPM_P1;HPM_P2
2024/04/12 00:01:41;;;;;;;10.93;5.50;;;12.10;1.00;;;;;;5491356;26;20955;-62
2024/04/12 00:04:09;;;;;;;8.57;6.00;;;12.10;99.90;;;;;;5491620;26;20890;-62
2024/04/12 00:06:39;;;;;;;8.83;6.10;;;12.10;99.90;;;;;;5491443;26;20922;-61
2024/04/12 00:09:09;;;;;;;11.40;6.10;;;12.20;99.90;;;;;;5491336;26;20895;-62
2024/04/12 00:11:40;;;;;;;7.40;6.40;;;12.10;99.90;;;;;;5491257;26;20502;-62
2024/04/12 00:14:11;;;;;;;12.03;5.77;;;12.10;99.90;;;;;;5526398;26;20519;-62
2024/04/12 00:16:38;;;;;;;9.43;5.20;;;12.20;99.90;;;;;;5527812;25;20459;-62
2024/04/12 00:19:12;;;;;;;15.13;5.93;;;12.20;56.50;;;;;;5527131;25;20836;-61
2024/04/12 00:21:41;;;;;;;7.80;5.20;;;12.20;36.80;;;;;;5526019;25;20499;-61
2024/04/12 00:24:12;;;;;;;9.30;5.50;;;12.20;91.70;;;;;;5527519;25;20462;-62
2024/04/12 00:26:43;;;;;;;6.33;5.17;;;12.20;99.90;;;;;;5527487;25;20510;-62
2024/04/12 00:29:25;;;;;;;10.20;6.20;;;12.20;99.90;;;;;;5527726;25;20447;-62
2024/04/12 00:31:53;;;;;;;11.93;5.40;;;12.30;53.00;;;;;;5527995;25;20450;-62
2024/04/12 00:34:26;;;;;;;12.33;5.60;;;12.20;99.90;;;;;;5527940;25;20975;-62
2024/04/12 00:36:54;;;;;;;8.67;5.47;;;12.30;95.20;;;;;;5527579;25;20419;-62
2024/04/12 00:39:38;;;;;;;8.53;6.00;;;12.30;76.40;;;;;;5527648;25;20384;-62
2024/04/12 00:42:07;;;;;;;8.20;5.90;;;12.30;99.90;;;;;;5527617;25;20590;-62
2024/04/12 00:44:38;;;;;;;8.77;6.13;;;12.30;99.90;;;;;;5527680;25;20564;-62
2024/04/12 00:47:10;;;;;;;8.03;6.20;;;12.40;99.90;;;;;;5527351;25;20569;-62
2024/04/12 00:49:49;;;;;;;8.13;5.77;;;12.40;70.70;;;;;;5527447;25;20890;-62
2024/04/12 00:52:15;;;;;;;9.63;5.53;;;12.50;90.20;;;;;;5527607;25;20450;-62
2024/04/12 00:54:49;;;;;;;8.43;5.47;;;12.50;51.60;;;;;;5527509;25;20455;-62
2024/04/12 00:57:20;;;;;;;7.97;5.40;;;12.60;64.10;;;;;;5527226;25;20495;-62
2024/04/12 00:59:51;;;;;;;6.80;5.03;;;12.60;1.00;;;;;;5527309;25;20576;-62
2024/04/12 01:02:21;;;;;;;8.63;5.50;;;12.50;1.00;;;;;;5529604;25;20474;-62
2024/04/12 01:04:50;;;;;;;7.67;5.80;;;12.60;99.90;;;;;;5531576;25;20496;-62
2024/04/12 01:07:18;;;;;;;9.13;5.47;;;12.60;1.00;;;;;;5530973;25;20518;-62
2024/04/12 01:09:54;;;;;;;7.40;5.80;;;12.60;1.00;;;;;;5531037;25;20400;-62
2024/04/12 01:12:21;;;;;;;8.40;5.70;;;12.50;99.90;;;;;;5530776;25;20455;-62
2024/04/12 01:14:51;;;;;;;10.80;5.77;;;12.60;1.00;;;;;;5531201;25;20451;-62
2024/04/12 01:17:18;;;;;;;7.90;5.90;;;12.60;99.90;;;;;;5530892;25;20812;-62
2024/04/12 01:19:47;;;;;;;8.20;6.60;;;12.60;99.90;;;;;;5531028;25;20505;-62
2024/04/12 01:22:14;;;;;;;7.77;5.10;;;12.60;1.00;;;;;;5530885;25;20739;-62
2024/04/12 01:24:47;;;;;;;8.43;6.23;;;12.70;1.00;;;;;;5530997;25;20451;-62
2024/04/12 01:27:14;;;;;;;8.00;6.50;;;12.70;99.90;;;;;;5530664;25;20455;-62
2024/04/12 01:29:43;;;;;;;9.10;6.23;;;12.70;1.00;;;;;;5530745;25;21009;-62
2024/04/12 01:32:12;;;;;;;8.57;5.30;;;12.70;99.90;;;;;;5530810;25;20499;-62
2024/04/12 01:34:50;;;;;;;6.57;5.30;;;12.70;29.70;;;;;;5530889;25;20812;-62
2024/04/12 01:37:20;;;;;;;9.53;5.90;;;12.70;1.00;;;;;;5530327;25;20475;-62
2024/04/12 01:39:52;;;;;;;6.57;5.20;;;12.70;1.00;;;;;;5530694;25;20907;-62
2024/04/12 01:42:18;;;;;;;11.47;5.77;;;12.70;1.00;;;;;;5530710;25;20495;-62
2024/04/12 01:45:13;;;;;;;9.67;6.33;;;12.80;99.90;;;;;;5530700;25;20467;-62
2024/04/12 01:47:34;;;;;;;6.27;5.10;;;12.80;99.90;;;;;;5530593;26;20896;-62
2024/04/12 01:50:05;;;;;;;7.50;5.40;;;12.80;99.90;;;;;;5530535;25;20737;-62
2024/04/12 01:52:31;;;;;;;7.63;5.50;;;12.80;99.90;;;;;;5530568;25;20447;-62
2024/04/12 01:55:10;;;;;;;10.53;5.83;;;12.80;1.00;;;;;;5530141;25;20470;-62
2024/04/12 01:57:41;;;;;;;6.90;5.60;;;12.80;99.90;;;;;;5530328;25;20896;-62
2024/04/12 02:00:11;;;;;;;7.90;6.00;;;12.80;1.00;;;;;;5530444;25;20747;-62
2024/04/12 02:02:37;;;;;;;8.70;6.80;;;12.80;99.90;;;;;;5530301;25;20443;-62
2024/04/12 02:05:09;;;;;;;6.67;5.97;;;12.90;1.00;;;;;;5530365;25;20447;-62
2024/04/12 02:07:39;;;;;;;16.00;7.73;;;12.90;1.00;;;;;;5530128;25;20389;-62
2024/04/12 02:10:11;;;;;;;8.87;5.63;;;12.90;1.90;;;;;;5530274;25;20516;-62
2024/04/12 02:12:40;;;;;;;7.30;5.80;;;12.90;1.00;;;;;;5529878;25;20586;-62
2024/04/12 02:15:19;;;;;;;7.10;6.07;;;12.90;99.90;;;;;;5529982;25;20547;-62
2024/04/12 02:17:48;;;;;;;8.53;6.10;;;12.90;1.00;;;;;;5530086;25;20388;-62
2024/04/12 02:20:19;;;;;;;6.90;5.60;;;13.00;1.00;;;;;;5530174;25;20495;-62
2024/04/12 02:22:46;;;;;;;6.53;5.93;;;13.00;1.00;;;;;;5530063;25;20908;-62
2024/04/12 02:25:19;;;;;;;7.00;5.90;;;13.00;1.00;;;;;;5529851;25;20427;-62
2024/04/12 02:27:46;;;;;;;8.53;6.37;;;13.10;1.00;;;;;;5530107;25;20722;-62
2024/04/12 02:30:17;;;;;;;8.07;5.60;;;13.10;1.00;;;;;;5529961;25;20455;-62
2024/04/12 02:32:45;;;;;;;8.27;5.83;;;13.10;1.00;;;;;;5530022;25;20678;-62
2024/04/12 02:35:14;;;;;;;8.87;6.17;;;13.00;1.00;;;;;;5529915;25;20447;-62
2024/04/12 02:37:41;;;;;;;8.73;6.40;;;13.10;1.00;;;;;;5529793;25;20407;-62
2024/04/12 02:40:15;;;;;;;9.00;5.70;;;13.00;1.00;;;;;;5529853;25;20462;-62
2024/04/12 02:42:44;;;;;;;9.03;5.37;;;13.10;1.00;;;;;;5529792;25;20446;-62
2024/04/12 02:45:13;;;;;;;10.87;7.03;;;13.10;1.00;;;;;;5529558;25;20863;-62
2024/04/12 02:47:40;;;;;;;11.53;6.90;;;13.00;1.00;;;;;;5529595;25;20388;-62
2024/04/12 02:50:10;;;;;;;8.10;7.10;;;13.10;6.40;;;;;;5529691;25;20458;-62
2024/04/12 02:52:38;;;;;;;8.80;7.10;;;13.10;1.00;;;;;;5529920;25;20944;-62
2024/04/12 02:55:12;;;;;;;10.83;7.83;;;13.10;1.00;;;;;;5529368;25;20459;-62
2024/04/12 02:57:41;;;;;;;8.57;6.80;;;13.10;1.00;;;;;;5529510;25;20450;-62
2024/04/12 03:00:21;;;;;;;8.20;6.77;;;13.10;99.90;;;;;;5529471;25;20451;-62
2024/04/12 03:02:51;;;;;;;10.90;7.60;;;13.10;49.60;;;;;;5529520;25;20459;-62
2024/04/12 03:05:22;;;;;;;9.67;7.70;;;13.20;1.00;;;;;;5529269;25;20508;-62
2024/04/12 03:07:52;;;;;;;9.00;7.40;;;13.10;99.90;;;;;;5529384;25;20967;-62
2024/04/12 03:10:24;;;;;;;9.87;8.90;;;13.10;99.90;;;;;;5529440;25;20396;-62
2024/04/12 03:12:51;;;;;;;7.97;6.97;;;13.10;99.90;;;;;;5529539;25;20509;-62
2024/04/12 03:15:26;;;;;;;9.23;8.23;;;13.10;99.90;;;;;;5529150;25;20928;-62
2024/04/12 03:17:52;;;;;;;10.13;8.30;;;13.10;99.90;;;;;;5529138;25;20719;-62
2024/04/12 03:20:21;;;;;;;9.90;8.90;;;13.10;99.90;;;;;;5528887;25;20518;-62
2024/04/12 03:22:48;;;;;;;9.93;7.73;;;13.10;99.90;;;;;;5529187;25;20500;-62
2024/04/12 03:25:17;;;;;;;14.33;8.40;;;13.10;99.90;;;;;;5527514;25;20507;-62
2024/04/12 03:27:43;;;;;;;8.37;7.47;;;13.10;99.90;;;;;;5528962;25;20462;-62
2024/04/12 03:30:16;;;;;;;10.63;8.33;;;13.10;1.00;;;;;;5529113;25;20400;-62
2024/04/12 03:32:46;;;;;;;10.53;8.00;;;13.10;99.90;;;;;;5529107;25;20472;-62
2024/04/12 03:35:16;;;;;;;11.07;8.07;;;13.10;1.00;;;;;;5528704;25;20736;-62
2024/04/12 03:38:24;;;;;;;8.53;7.73;;;13.10;56.40;;;;;;5528674;25;20462;-62
2024/04/12 03:40:32;;;;;;;8.63;7.40;;;13.10;99.90;;;;;;5528839;26;20497;-62
2024/04/12 03:43:02;;;;;;;11.30;8.03;;;13.10;99.90;;;;;;5528426;25;20404;-62
2024/04/12 03:45:31;;;;;;;12.10;7.37;;;13.10;99.90;;;;;;5528586;25;20400;-62
2024/04/12 03:48:05;;;;;;;10.60;7.00;;;13.10;94.50;;;;;;5528685;25;20518;-62
2024/04/12 03:50:34;;;;;;;6.87;6.17;;;13.20;1.00;;;;;;5528038;25;20501;-62
2024/04/12 03:53:14;;;;;;;6.77;6.00;;;13.20;99.90;;;;;;5528419;25;20487;-62
2024/04/12 03:55:45;;;;;;;5.73;5.13;;;13.20;99.90;;;;;;5528478;25;20534;-61
2024/04/12 03:58:17;;;;;;;8.83;6.23;;;13.20;99.90;;;;;;5528621;25;20551;-61
2024/04/12 04:00:47;;;;;;;7.97;6.10;;;13.10;47.20;;;;;;5528578;25;20454;-61
2024/04/12 04:03:30;;;;;;;6.17;5.23;;;13.10;1.00;;;;;;5528113;25;20486;-61
2024/04/12 04:06:05;;;;;;;8.10;6.10;;;13.10;1.00;;;;;;5528015;25;20459;-61
2024/04/12 04:08:45;;;;;;;8.03;6.80;;;13.20;99.90;;;;;;5528381;25;20493;-61
2024/04/12 04:11:15;;;;;;;8.00;5.90;;;13.10;99.90;;;;;;5528099;25;20908;-62
2024/04/12 04:13:41;;;;;;;8.60;6.07;;;13.10;99.90;;;;;;5528173;25;20964;-61
2024/04/12 04:16:16;;;;;;;7.90;5.67;;;13.00;99.90;;;;;;5528202;25;20544;-61
2024/04/12 04:18:49;;;;;;;6.83;5.30;;;13.10;99.90;;;;;;5528256;25;20502;-62
2024/04/12 04:21:15;;;;;;;7.70;6.00;;;13.10;99.90;;;;;;5528121;25;20916;-62
2024/04/12 04:23:46;;;;;;;6.93;6.33;;;13.00;1.00;;;;;;5527845;25;20646;-62
2024/04/12 04:26:13;;;;;;;8.10;6.57;;;13.00;1.00;;;;;;5528104;25;20495;-61
2024/04/12 04:28:45;;;;;;;7.40;6.37;;;13.00;1.00;;;;;;5528039;25;20462;-61
2024/04/12 04:31:12;;;;;;;7.33;5.97;;;13.00;99.90;;;;;;5527761;25;20501;-61
2024/04/12 04:33:41;;;;;;;7.10;6.20;;;13.10;99.90;;;;;;5527767;25;20575;-61
2024/04/12 04:36:11;;;;;;;7.70;6.37;;;13.00;99.90;;;;;;5529898;25;20475;-61
2024/04/12 04:38:41;;;;;;;11.13;5.70;;;13.00;1.00;;;;;;5531808;25;20838;-61
2024/04/12 04:41:07;;;;;;;7.67;5.83;;;12.90;99.90;;;;;;5531280;25;21017;-61
2024/04/12 04:43:36;;;;;;;7.17;6.27;;;12.90;99.90;;;;;;5531168;25;20500;-61
2024/04/12 04:46:25;;;;;;;9.80;5.60;;;12.90;99.90;;;;;;5531326;25;20771;-61
2024/04/12 04:48:54;;;;;;;7.70;5.53;;;12.90;99.90;;;;;;5531402;25;20511;-61
2024/04/12 04:51:23;;;;;;;7.87;5.90;;;12.90;66.60;;;;;;5530891;25;20455;-61
2024/04/12 04:53:52;;;;;;;9.23;6.00;;;12.90;99.90;;;;;;5531066;25;20552;-61
2024/04/12 04:56:24;;;;;;;6.80;5.87;;;12.90;99.90;;;;;;5531156;25;21068;-61
2024/04/12 04:58:54;;;;;;;8.00;6.33;;;12.90;99.90;;;;;;5531197;25;20467;-61
2024/04/12 05:01:24;;;;;;;11.93;7.10;;;12.90;99.90;;;;;;5530877;25;20450;-61
2024/04/12 05:03:56;;;;;;;9.20;6.53;;;12.90;99.90;;;;;;5530802;25;20459;-61
2024/04/12 05:06:27;;;;;;;7.40;6.57;;;12.90;1.00;;;;;;5531098;25;20892;-61
2024/04/12 05:09:00;;;;;;;10.47;6.50;;;12.90;1.00;;;;;;5530907;25;20549;-61
2024/04/12 05:11:29;;;;;;;8.70;7.33;;;12.90;99.90;;;;;;5530664;25;20444;-61
2024/04/12 05:14:06;;;;;;;7.10;5.93;;;12.90;1.00;;;;;;5530853;25;20450;-61
2024/04/12 05:16:32;;;;;;;8.80;7.40;;;12.90;1.00;;;;;;5530978;25;20454;-61
2024/04/12 05:19:08;;;;;;;11.93;8.20;;;12.90;1.00;;;;;;5530649;25;20500;-61
2024/04/12 05:21:40;;;;;;;11.10;8.73;;;12.90;1.00;;;;;;5530509;25;20438;-61
2024/04/12 05:24:11;;;;;;;9.47;8.17;;;12.90;1.00;;;;;;5530243;25;20758;-61
2024/04/12 05:26:41;;;;;;;9.70;8.30;;;13.00;5.00;;;;;;5530638;25;20470;-62
2024/04/12 05:29:12;;;;;;;11.13;9.20;;;13.00;1.00;;;;;;5530338;25;20576;-61
2024/04/12 05:31:42;;;;;;;10.60;8.97;;;13.00;1.00;;;;;;5530499;25;20796;-61
2024/04/12 05:34:12;;;;;;;11.73;9.30;;;12.90;1.00;;;;;;5530690;25;20470;-62
2024/04/12 05:36:41;;;;;;;10.57;8.40;;;12.90;1.00;;;;;;5530329;25;21065;-63
2024/04/12 05:39:11;;;;;;;14.80;9.70;;;12.90;1.00;;;;;;5530432;25;20984;-62
2024/04/12 05:41:37;;;;;;;10.90;9.70;;;13.00;99.90;;;;;;5530486;25;20499;-63
2024/04/12 05:44:07;;;;;;;10.93;9.50;;;13.00;99.90;;;;;;5530510;25;20511;-60
2024/04/12 05:46:35;;;;;;;10.07;9.07;;;12.90;99.90;;;;;;5530016;25;20432;-60
2024/04/12 05:49:09;;;;;;;10.17;8.90;;;12.90;99.90;;;;;;5530320;25;20781;-61
2024/04/12 05:51:37;;;;;;;10.20;9.07;;;13.00;99.90;;;;;;5530268;25;20396;-61
2024/04/12 05:54:15;;;;;;;11.00;9.80;;;13.00;1.00;;;;;;5530444;25;20967;-61
2024/04/12 05:56:44;;;;;;;10.97;9.63;;;13.00;99.90;;;;;;5530473;25;20458;-61
2024/04/12 05:59:14;;;;;;;13.63;9.37;;;13.00;99.90;;;;;;5530247;25;20455;-61
2024/04/12 06:01:43;;;;;;;10.80;9.60;;;13.10;1.00;;;;;;5529820;25;20991;-61
2024/04/12 06:04:14;;;;;;;9.07;8.17;;;13.00;1.00;;;;;;5530243;25;20532;-61
2024/04/12 06:06:42;;;;;;;12.73;8.70;;;13.00;99.90;;;;;;5529465;25;20559;-63
2024/04/12 06:09:19;;;;;;;10.03;7.93;;;12.90;99.90;;;;;;5530010;25;20583;-63
2024/04/12 06:11:53;;;;;;;11.40;9.00;;;13.00;99.90;;;;;;5530129;25;20434;-63
2024/04/12 06:14:24;;;;;;;10.93;8.00;;;13.00;99.90;;;;;;5530340;25;20608;-63
2024/04/12 06:16:51;;;;;;;9.73;8.40;;;13.00;99.90;;;;;;5530239;25;20468;-63
2024/04/12 06:19:21;;;;;;;8.07;7.23;;;13.00;1.00;;;;;;5529990;25;20460;-62
2024/04/12 06:21:48;;;;;;;8.30;7.17;;;13.10;1.00;;;;;;5529957;25;20956;-60
2024/04/12 06:24:26;;;;;;;9.50;7.00;;;13.20;99.90;;;;;;5527314;25;20540;-63
2024/04/12 06:26:54;;;;;;;9.13;6.23;;;13.20;99.90;;;;;;5530156;25;20459;-60
2024/04/12 06:29:26;;;;;;;11.43;6.23;;;13.20;1.00;;;;;;5529912;25;20447;-60
2024/04/12 06:31:54;;;;;;;8.87;5.43;;;13.30;99.90;;;;;;5529925;25;20445;-59
2024/04/12 06:34:23;;;;;;;9.53;6.40;;;13.40;1.00;;;;;;5530003;25;20389;-61
2024/04/12 06:36:56;;;;;;;8.30;6.60;;;13.50;99.90;;;;;;5529522;25;20778;-61
2024/04/12 06:39:28;;;;;;;11.53;6.93;;;13.50;1.00;;;;;;5529962;25;21018;-61
2024/04/12 06:41:57;;;;;;;8.80;7.23;;;13.50;99.90;;;;;;5529808;25;20455;-61
2024/04/12 06:44:30;;;;;;;9.47;7.50;;;13.60;99.90;;;;;;5529805;25;20800;-61
2024/04/12 06:46:58;;;;;;;11.53;7.80;;;13.70;99.90;;;;;;5529457;25;20455;-61
2024/04/12 06:49:29;;;;;;;10.20;9.10;;;13.80;99.90;;;;;;5529562;25;20435;-60
2024/04/12 06:54:48;;;;;;;9.47;8.43;;;13.80;1.00;;;;;;5522563;25;20566;-61
2024/04/12 06:57:17;;;;;;;9.60;7.60;;;13.80;1.00;;;;;;5529347;25;20437;-61
2024/04/12 06:59:47;;;;;;;9.73;7.93;;;13.70;1.00;;;;;;5527425;25;20993;-61
2024/04/12 07:02:14;;;;;;;8.40;7.50;;;13.80;1.00;;;;;;5529476;25;20455;-61
2024/04/12 07:04:43;;;;;;;10.53;7.57;;;13.80;99.90;;;;;;5529445;25;20454;-61
2024/04/12 07:07:10;;;;;;;8.33;7.40;;;13.80;1.00;;;;;;5529217;25;20588;-61
2024/04/12 07:09:45;;;;;;;8.60;7.63;;;13.80;28.50;;;;;;5529263;25;20552;-61
2024/04/12 07:12:14;;;;;;;9.40;8.07;;;13.70;1.00;;;;;;5529079;25;20462;-61
2024/04/12 07:14:46;;;;;;;8.80;7.00;;;13.70;99.90;;;;;;5527891;25;20500;-61
2024/04/12 07:17:23;;;;;;;7.50;6.70;;;13.70;99.90;;;;;;5526112;25;20781;-61
2024/04/12 07:19:53;;;;;;;8.50;6.87;;;13.80;1.00;;;;;;5526611;25;20466;-61
2024/04/12 07:22:20;;;;;;;8.63;7.27;;;13.70;99.90;;;;;;5526586;25;20567;-60
2024/04/12 07:24:50;;;;;;;10.80;8.17;;;13.80;99.90;;;;;;5526426;25;20462;-60
2024/04/12 07:27:22;;;;;;;7.67;6.50;;;13.80;1.00;;;;;;5527780;25;20455;-60
2024/04/12 07:29:52;;;;;;;8.30;7.50;;;13.80;99.90;;;;;;5527651;25;20988;-61
2024/04/12 07:32:22;;;;;;;8.70;6.30;;;13.90;1.00;;;;;;5529117;25;20400;-61
2024/04/12 07:34:51;;;;;;;9.50;6.93;;;13.90;40.90;;;;;;5528986;25;20400;-61
2024/04/12 07:37:28;;;;;;;8.90;7.47;;;13.80;1.00;;;;;;5528836;25;20510;-61
2024/04/12 07:42:48;;;;;;;10.27;6.80;;;13.90;1.00;;;;;;5521351;26;20482;-61
2024/04/12 07:45:17;;;;;;;9.10;7.07;;;13.90;1.00;;;;;;5527026;25;20474;-61
2024/04/12 07:47:52;;;;;;;7.60;6.30;;;14.00;37.90;;;;;;5526665;25;20980;-61
2024/04/12 07:50:21;;;;;;;7.07;6.33;;;14.10;99.90;;;;;;5528684;25;20745;-61
2024/04/12 07:52:52;;;;;;;7.50;6.77;;;14.20;99.90;;;;;;5527941;25;20800;-61
2024/04/12 07:55:23;;;;;;;8.00;5.90;;;14.30;99.90;;;;;;5526791;25;20408;-61
2024/04/12 07:57:56;;;;;;;7.47;6.00;;;14.50;1.00;;;;;;5528981;25;20522;-61
2024/04/12 08:00:36;;;;;;;7.30;6.10;;;14.50;1.00;;;;;;5528678;25;20741;-61
2024/04/12 08:03:07;;;;;;;9.00;6.47;;;14.50;99.90;;;;;;5528150;25;20507;-61
2024/04/12 08:05:48;;;;;;;6.60;5.90;;;14.60;99.90;;;;;;5528126;25;20432;-61
2024/04/12 08:08:27;;;;;;;7.30;5.30;;;14.70;8.10;;;;;;5525421;25;20506;-61
2024/04/12 08:10:56;;;;;;;9.03;7.10;;;14.70;99.90;;;;;;5527646;25;20907;-61
2024/04/12 08:13:37;;;;;;;7.67;6.70;;;14.60;99.90;;;;;;5528819;25;20925;-61
2024/04/12 08:16:09;;;;;;;8.83;6.70;;;14.60;1.00;;;;;;5526336;25;20454;-61
2024/04/12 08:18:43;;;;;;;9.10;8.00;;;14.70;1.00;;;;;;5526538;25;20467;-61
2024/04/12 08:21:12;;;;;;;8.97;7.07;;;14.70;90.30;;;;;;5527293;25;20795;-61
2024/04/12 08:23:43;;;;;;;7.30;6.60;;;14.70;1.00;;;;;;5528684;25;20944;-61
2024/04/12 08:26:11;;;;;;;9.03;6.60;;;14.80;1.00;;;;;;5529019;25;20442;-61
2024/04/12 08:28:43;;;;;;;13.40;8.03;;;14.90;76.60;;;;;;5529014;25;20447;-61
2024/04/12 08:31:11;;;;;;;9.90;8.40;;;15.00;1.00;;;;;;5529724;25;20454;-61
2024/04/12 08:33:45;;;;;;;10.60;8.03;;;15.10;1.00;;;;;;5531591;25;20455;-61
2024/04/12 08:36:14;;;;;;;11.53;9.20;;;15.20;99.90;;;;;;5529877;25;20406;-61
2024/04/12 08:38:54;;;;;;;9.40;8.50;;;15.30;99.90;;;;;;5528096;25;20442;-61
2024/04/12 08:41:26;;;;;;;9.90;8.90;;;15.50;57.60;;;;;;5528373;25;20862;-61
2024/04/12 08:43:58;;;;;;;9.83;8.97;;;15.70;99.90;;;;;;5528276;25;20808;-60
2024/04/12 08:46:33;;;;;;;10.13;9.23;;;15.70;1.00;;;;;;5528072;26;20463;-61
2024/04/12 08:49:03;;;;;;;10.33;9.27;;;15.70;68.20;;;;;;5526254;25;21049;-61
2024/04/12 08:51:32;;;;;;;10.43;9.53;;;15.90;1.00;;;;;;5526164;25;20769;-61
2024/04/12 08:54:05;;;;;;;10.27;9.33;;;15.90;99.90;;;;;;5530391;25;20967;-61
2024/04/12 08:56:32;;;;;;;8.90;8.10;;;16.00;1.00;;;;;;5530785;25;20451;-61
2024/04/12 08:59:05;;;;;;;9.00;8.20;;;16.00;1.00;;;;;;5531097;25;20827;-61
2024/04/12 09:01:32;;;;;;;9.63;8.73;;;16.10;99.90;;;;;;5530956;25;20506;-61
2024/04/12 09:04:13;;;;;;;9.80;9.00;;;16.20;99.90;;;;;;5530713;25;20474;-61
2024/04/12 09:06:39;;;;;;;10.13;9.23;;;16.30;99.90;;;;;;5531005;25;20451;-61
2024/04/12 09:09:13;;;;;;;9.40;8.60;;;16.50;1.00;;;;;;5531136;25;20459;-62
2024/04/12 09:11:40;;;;;;;10.10;9.10;;;16.70;1.00;;;;;;5531051;25;21008;-61
2024/04/12 09:14:20;;;;;;;9.80;8.80;;;16.90;99.90;;;;;;5530795;25;20511;-61
2024/04/12 09:16:48;;;;;;;9.30;8.50;;;16.90;1.00;;;;;;5530659;25;20567;-61
2024/04/12 09:19:18;;;;;;;9.90;8.90;;;16.90;1.00;;;;;;5530813;25;20446;-61
2024/04/12 09:21:47;;;;;;;10.90;8.87;;;16.90;99.90;;;;;;5529656;25;20911;-61
2024/04/12 09:24:21;;;;;;;10.10;8.97;;;17.00;1.00;;;;;;5530905;25;20506;-62
2024/04/12 09:26:58;;;;;;;9.47;8.23;;;17.20;99.90;;;;;;5530853;25;20892;-61
2024/04/12 09:29:32;;;;;;;8.87;7.70;;;17.10;99.90;;;;;;5530621;25;21037;-61
2024/04/12 09:34:55;;;;;;;9.83;7.13;;;17.20;1.00;;;;;;5530777;26;20556;-61
2024/04/12 09:37:29;;;;;;;8.30;7.50;;;17.30;99.90;;;;;;5529453;25;20474;-61
2024/04/12 09:40:24;;;;;;;10.00;9.10;;;17.20;1.00;;;;;;5530101;25;20869;-61
2024/04/12 09:45:57;;;;;;;7.20;6.60;;;17.20;99.90;;;;;;5530304;26;20455;-62
2024/04/12 10:38:47;;;;;;;7.20;6.50;;;18.70;99.90;;;;;;5496080;26;20490;-61
2024/04/12 10:41:17;;;;;;;7.10;6.40;;;18.50;1.00;;;;;;5492830;26;20981;-60
2024/04/12 10:43:46;;;;;;;7.90;6.20;;;18.50;1.00;;;;;;5492709;26;20748;-60
2024/04/12 10:46:13;;;;;;;9.50;6.80;;;18.60;1.00;;;;;;5492621;26;20445;-60
2024/04/12 10:48:44;;;;;;;6.80;5.83;;;18.60;1.00;;;;;;5492707;26;20787;-60
2024/04/12 10:51:14;;;;;;;7.47;5.83;;;18.50;1.00;;;;;;5492704;26;20452;-60
2024/04/12 10:53:46;;;;;;;6.70;6.00;;;18.50;1.00;;;;;;5492602;26;20452;-59
2024/04/12 10:56:18;;;;;;;8.77;7.27;;;18.60;1.00;;;;;;5492664;26;20456;-59
2024/04/12 10:58:51;;;;;;;7.37;6.67;;;18.80;1.00;;;;;;5492882;26;20503;-60
2024/04/12 11:01:22;;;;;;;7.80;7.10;;;18.80;1.00;;;;;;5492320;26;20452;-61
2024/04/12 11:04:02;;;;;;;6.60;5.90;;;18.70;1.00;;;;;;5492337;26;20460;-59
2024/04/12 11:06:32;;;;;;;7.07;5.10;;;18.50;1.00;;;;;;5492574;26;20491;-61
2024/04/12 11:09:04;;;;;;;6.93;6.23;;;18.40;1.00;;;;;;5492118;26;20516;-60
2024/04/12 11:11:38;;;;;;;8.57;5.70;;;18.50;1.00;;;;;;5492196;26;20500;-60
2024/04/12 11:14:15;;;;;;;9.07;6.43;;;18.60;1.00;;;;;;5492354;26;20460;-60
2024/04/12 11:33:39;;;;;;;8.30;5.53;;;19.80;99.90;;;;;;5527176;26;20964;-62
2024/04/12 11:36:10;;;;;;;6.60;5.70;;;19.90;1.00;;;;;;5528190;25;20466;-62
2024/04/12 11:38:44;;;;;;;8.23;5.53;;;20.10;99.90;;;;;;5528816;25;20502;-63
2024/04/12 11:41:15;;;;;;;5.73;5.13;;;20.30;1.00;;;;;;5527590;25;20450;-62
2024/04/12 11:43:45;;;;;;;5.40;4.90;;;20.50;1.00;;;;;;5526787;25;20443;-61
2024/04/12 11:46:14;;;;;;;5.97;5.37;;;20.60;1.00;;;;;;5527239;25;20492;-62
2024/04/12 11:48:43;;;;;;;8.80;5.17;;;20.70;1.00;;;;;;5528700;25;20455;-62
2024/04/12 11:51:11;;;;;;;9.63;5.67;;;20.60;1.00;;;;;;5528590;25;20454;-62
2024/04/12 11:53:43;;;;;;;8.30;5.50;;;20.30;1.00;;;;;;5528400;25;20552;-62
2024/04/12 11:56:10;;;;;;;9.70;4.97;;;20.20;99.90;;;;;;5528628;25;20451;-62
2024/04/12 11:58:43;;;;;;;7.83;5.00;;;20.40;99.90;;;;;;5528490;25;20462;-62
2024/04/12 12:01:10;;;;;;;6.37;5.30;;;20.40;43.00;;;;;;5527986;25;20475;-62
2024/04/12 12:03:39;;;;;;;7.37;5.50;;;20.50;55.20;;;;;;5527226;25;20471;-62
2024/04/12 12:06:06;;;;;;;6.30;4.87;;;20.40;99.90;;;;;;5521372;26;20459;-62
2024/04/12 12:08:41;;;;;;;7.23;4.80;;;20.60;1.00;;;;;;5527294;25;20464;-61
2024/04/12 12:11:10;;;;;;;5.43;4.30;;;20.60;1.00;;;;;;5527191;25;20462;-61
2024/04/12 12:13:43;;;;;;;4.53;4.13;;;20.70;1.00;;;;;;5527159;25;20459;-61
2024/04/12 12:16:14;;;;;;;6.53;5.23;;;20.50;1.00;;;;;;5527528;25;20554;-61
2024/04/12 12:18:44;;;;;;;5.90;4.70;;;20.50;19.50;;;;;;5528198;25;20813;-61
2024/04/12 12:21:11;;;;;;;8.10;4.77;;;20.50;59.90;;;;;;5527687;25;20450;-62
2024/04/12 12:23:40;;;;;;;8.60;5.50;;;20.50;99.90;;;;;;5527821;25;20511;-62
2024/04/12 12:26:10;;;;;;;7.33;5.03;;;20.30;18.90;;;;;;5527936;25;20447;-63
2024/04/12 12:28:40;;;;;;;5.90;4.80;;;19.90;99.90;;;;;;5527958;25;20451;-62
2024/04/12 12:31:06;;;;;;;5.90;4.83;;;19.50;99.90;;;;;;5527377;25;20455;-62
2024/04/12 12:33:38;;;;;;;5.97;5.13;;;19.30;1.00;;;;;;5527590;25;20991;-61
2024/04/12 12:36:10;;;;;;;5.37;4.87;;;19.00;99.90;;;;;;5527354;25;20466;-61
2024/04/12 12:38:40;;;;;;;5.23;4.63;;;19.00;23.70;;;;;;5528041;25;20383;-61
2024/04/12 12:41:09;;;;;;;8.63;4.90;;;19.10;1.00;;;;;;5527624;25;20583;-61
2024/04/12 12:43:44;;;;;;;8.87;5.00;;;19.20;1.00;;;;;;5527194;25;20911;-62
2024/04/12 12:46:10;;;;;;;8.10;5.00;;;19.60;1.00;;;;;;5527385;25;20450;-61
2024/04/12 12:48:39;;;;;;;5.77;5.23;;;20.20;99.90;;;;;;5526846;25;20571;-61
2024/04/12 12:51:06;;;;;;;5.83;4.43;;;20.40;99.90;;;;;;5525009;25;20470;-61
2024/04/12 12:53:36;;;;;;;11.30;4.40;;;20.70;99.90;;;;;;5524785;26;21003;-61
2024/04/12 12:56:05;;;;;;;6.60;4.73;;;21.00;99.90;;;;;;5525775;25;20490;-61
2024/04/12 12:58:38;;;;;;;7.93;4.10;;;21.10;99.90;;;;;;5528124;25;20448;-61
2024/04/12 13:01:07;;;;;;;5.27;3.93;;;21.00;86.10;;;;;;5530263;25;20553;-61
2024/04/12 13:03:37;;;;;;;4.73;4.20;;;20.80;99.90;;;;;;5528390;25;20508;-61
2024/04/12 13:06:06;;;;;;;5.37;3.73;;;20.40;99.90;;;;;;5531203;25;20533;-61
2024/04/12 13:08:36;;;;;;;4.47;4.07;;;20.20;99.90;;;;;;5531080;25;20522;-61
2024/04/12 13:11:08;;;;;;;6.30;3.30;;;19.90;99.90;;;;;;5530600;25;20567;-61
2024/04/12 13:13:42;;;;;;;3.33;3.03;;;19.80;99.90;;;;;;5530314;25;20466;-61
2024/04/12 13:16:11;;;;;;;4.40;3.80;;;19.70;99.90;;;;;;5529084;25;20865;-61
2024/04/12 13:18:44;;;;;;;5.30;3.80;;;19.70;99.90;;;;;;5529899;25;20900;-61
2024/04/12 13:21:11;;;;;;;4.50;4.10;;;19.70;1.00;;;;;;5528895;25;20500;-61
2024/04/12 13:23:41;;;;;;;7.03;3.70;;;19.60;1.00;;;;;;5528974;25;20522;-61
2024/04/12 13:26:08;;;;;;;4.10;3.30;;;19.60;1.00;;;;;;5529722;25;20451;-61
2024/04/12 13:28:42;;;;;;;5.10;3.50;;;19.60;1.00;;;;;;5530622;25;20459;-61
2024/04/12 13:31:14;;;;;;;5.33;3.10;;;19.50;99.90;;;;;;5530473;25;20450;-61
2024/04/12 13:33:45;;;;;;;4.70;2.97;;;19.30;1.00;;;;;;5530069;25;20569;-61
2024/04/12 13:36:13;;;;;;;4.57;3.10;;;19.20;1.00;;;;;;5529576;25;20471;-61
2024/04/12 13:38:42;;;;;;;7.43;3.10;;;18.90;1.00;;;;;;5527499;25;20384;-61
2024/04/12 13:41:10;;;;;;;7.90;3.10;;;18.80;99.90;;;;;;5526630;25;20463;-61
2024/04/12 13:43:46;;;;;;;5.90;3.13;;;18.80;99.90;;;;;;5526329;25;20463;-59
2024/04/12 13:51:49;;;;;;;5.03;3.37;;;19.20;1.00;;;;;;5529444;26;20884;-59
2024/04/12 13:54:20;;;;;;;4.80;3.43;;;19.40;1.00;;;;;;5527479;25;20564;-58
2024/04/12 13:56:50;;;;;;;3.70;3.20;;;19.50;1.00;;;;;;5530398;25;20454;-58
2024/04/12 13:59:19;;;;;;;5.93;3.17;;;19.80;1.00;;;;;;5530251;25;20455;-58
2024/04/12 14:01:49;;;;;;;2.90;2.60;;;20.10;99.90;;;;;;5530235;25;20572;-58
2024/04/12 14:04:18;;;;;;;3.80;3.07;;;20.20;1.00;;;;;;5530298;25;20439;-58
2024/04/12 14:06:49;;;;;;;4.33;2.63;;;20.30;1.00;;;;;;5530238;25;20454;-58
2024/04/12 14:09:21;;;;;;;3.83;3.03;;;20.30;1.00;;;;;;5529519;25;20751;-58
2024/04/12 14:11:51;;;;;;;5.27;3.00;;;20.20;1.00;;;;;;5530201;25;20530;-59
2024/04/12 14:14:20;;;;;;;5.30;3.40;;;20.10;99.90;;;;;;5530321;25;20499;-59
2024/04/12 14:16:51;;;;;;;4.20;3.47;;;19.80;99.90;;;;;;5530122;25;20451;-59
2024/04/12 14:19:18;;;;;;;4.10;3.60;;;19.60;99.90;;;;;;5529681;25;20454;-58
2024/04/12 14:21:48;;;;;;;6.67;3.00;;;19.50;99.90;;;;;;5529931;25;20836;-58
2024/04/12 14:27:00;;;;;;;3.70;3.40;;;19.40;99.90;;;;;;5529477;26;20463;-58
2024/04/12 14:29:31;;;;;;;7.23;3.03;;;19.50;99.90;;;;;;5529725;25;20522;-59
2024/04/12 14:32:05;;;;;;;3.83;3.30;;;19.60;99.90;;;;;;5529835;25;20455;-58
2024/04/12 14:34:32;;;;;;;7.17;3.80;;;19.60;99.90;;;;;;5529963;25;20810;-58
2024/04/12 14:37:02;;;;;;;4.40;3.90;;;19.50;99.90;;;;;;5529275;25;21022;-58